Time;durP1;ratioP1;P1;durP2;ratioP2;P2;SDS_P1;SDS_P2;PMS_P1;PMS_P2;Temp;Humidity;BMP_temperature;BMP_pressure;BME280_temperature;BME280_humidity;BME280_pressure;Samples;Min_cycle;Max_cycle;Signal;HPM_P1;HPM_P2
2023/10/20 00:01:07;;;;;;;;;;;18.50;98.10;;;;;;5036270;28;19982;-61
2023/10/20 00:03:33;;;;;;;;;;;18.50;98.20;;;;;;5036444;28;20055;-62
2023/10/20 00:05:58;;;;;;;;;;;18.50;98.40;;;;;;5036192;28;20482;-60
2023/10/20 00:08:24;;;;;;;;;;;18.50;99.00;;;;;;5035878;28;20479;-60
2023/10/20 00:10:50;;;;;;;;;;;18.30;99.10;;;;;;5035716;28;19993;-60
2023/10/20 00:13:16;;;;;;;;;;;18.30;99.50;;;;;;5036217;28;20325;-62
2023/10/20 00:15:45;;;;;;;;;;;18.10;99.90;;;;;;5035936;28;20005;-59
2023/10/20 00:18:10;;;;;;;;;;;18.10;99.90;;;;;;5036041;28;20077;-61
2023/10/20 00:20:36;;;;;;;;;;;18.10;99.90;;;;;;5035658;28;20060;-60
2023/10/20 00:23:01;;;;;;;;;;;18.20;99.90;;;;;;5035690;28;19993;-62
2023/10/20 00:25:27;;;;;;;;;;;18.30;99.60;;;;;;5035559;28;19982;-60
2023/10/20 00:27:52;;;;;;;;;;;18.40;99.90;;;;;;5035784;28;20108;-61
2023/10/20 00:30:18;;;;;;;;;;;18.30;99.90;;;;;;5035749;28;20008;-61
2023/10/20 00:32:45;;;;;;;;;;;18.30;99.90;;;;;;5035568;28;20028;-62
2023/10/20 00:35:13;;;;;;;;;;;18.30;99.90;;;;;;5035711;28;19990;-60
2023/10/20 00:37:39;;;;;;;;;;;18.40;99.80;;;;;;5035654;28;20454;-60
2023/10/20 00:40:07;;;;;;;;;;;18.40;99.90;;;;;;5035227;28;20092;-60
2023/10/20 00:42:33;;;;;;;;;;;18.40;99.70;;;;;;5035736;28;19993;-63
2023/10/20 00:44:59;;;;;;;;;;;18.40;99.60;;;;;;5035813;28;20060;-60
2023/10/20 00:47:25;;;;;;;;;;;18.40;99.80;;;;;;5035398;28;19986;-63
2023/10/20 00:49:51;;;;;;;;;;;18.40;99.80;;;;;;5035284;28;20490;-62
2023/10/20 00:52:17;;;;;;;;;;;18.30;99.80;;;;;;5035535;28;19986;-62
2023/10/20 00:54:45;;;;;;;;;;;18.30;99.90;;;;;;5035300;28;20399;-62
2023/10/20 00:57:10;;;;;;;;;;;18.20;99.90;;;;;;5035359;28;19990;-63
2023/10/20 00:59:36;;;;;;;;;;;18.20;99.90;;;;;;5035390;28;19986;-61
2023/10/20 01:02:02;;;;;;;;;;;18.30;99.90;;;;;;5035115;28;20086;-62
2023/10/20 01:04:27;;;;;;;;;;;18.30;99.90;;;;;;5034977;28;19990;-61
2023/10/20 01:06:53;;;;;;;;;;;18.30;99.90;;;;;;5035137;28;19982;-62
2023/10/20 01:09:25;;;;;;;;;;;18.20;99.90;;;;;;5034673;28;20056;-60
2023/10/20 01:11:51;;;;;;;;;;;18.10;99.90;;;;;;5034806;28;19993;-60
2023/10/20 01:14:16;;;;;;;;;;;18.10;99.90;;;;;;5034921;28;19982;-62
2023/10/20 01:16:42;;;;;;;;;;;18.00;99.90;;;;;;5034853;28;19998;-63
2023/10/20 01:19:07;;;;;;;;;;;18.10;99.90;;;;;;5034474;28;20021;-62
2023/10/20 01:21:33;;;;;;;;;;;18.00;99.90;;;;;;5034768;28;19982;-61
2023/10/20 01:24:01;;;;;;;;;;;18.00;99.90;;;;;;5034168;28;20065;-61
2023/10/20 01:26:29;;;;;;;;;;;18.00;99.90;;;;;;5034768;28;20014;-61
2023/10/20 01:28:55;;;;;;;;;;;17.90;99.90;;;;;;5034490;28;20072;-60
2023/10/20 01:31:20;;;;;;;;;;;17.90;99.90;;;;;;5034586;28;19982;-62
2023/10/20 01:33:46;;;;;;;;;;;17.90;99.90;;;;;;5034303;28;19985;-61
2023/10/20 01:36:11;;;;;;;;;;;17.90;99.90;;;;;;5034091;28;20032;-62
2023/10/20 01:38:37;;;;;;;;;;;18.00;99.90;;;;;;5034413;28;20072;-61
2023/10/20 01:41:02;;;;;;;;;;;18.00;99.90;;;;;;5034655;28;19986;-62
2023/10/20 01:43:28;;;;;;;;;;;18.00;99.90;;;;;;5034422;28;19986;-61
2023/10/20 01:45:54;;;;;;;;;;;17.90;99.90;;;;;;5034346;28;19989;-62
2023/10/20 01:48:20;;;;;;;;;;;17.80;99.90;;;;;;5034330;28;20032;-60
2023/10/20 01:50:45;;;;;;;;;;;17.80;99.90;;;;;;5034089;28;19982;-59
2023/10/20 01:53:11;;;;;;;;;;;17.80;99.90;;;;;;5033991;28;20124;-60
2023/10/20 01:55:39;;;;;;;;;;;17.80;99.90;;;;;;5034397;28;19993;-59
2023/10/20 01:58:05;;;;;;;;;;;17.80;99.90;;;;;;5034013;28;19986;-61
2023/10/20 02:00:31;;;;;;;;;;;17.90;99.90;;;;;;5034055;28;20388;-59
2023/10/20 02:02:56;;;;;;;;;;;18.00;99.90;;;;;;5034034;28;20047;-61
2023/10/20 02:05:22;;;;;;;;;;;18.00;99.90;;;;;;5033665;28;20068;-62
2023/10/20 02:07:48;;;;;;;;;;;18.00;99.90;;;;;;5033822;28;20383;-61
2023/10/20 02:10:14;;;;;;;;;;;18.10;99.90;;;;;;5033930;28;20096;-62
2023/10/20 02:12:41;;;;;;;;;;;18.10;99.90;;;;;;5034126;28;19986;-61
2023/10/20 02:15:07;;;;;;;;;;;18.10;99.90;;;;;;5034281;28;19994;-62
2023/10/20 02:17:36;;;;;;;;;;;18.10;99.90;;;;;;5033931;28;20013;-61
2023/10/20 02:20:02;;;;;;;;;;;18.10;99.90;;;;;;5033374;28;20487;-63
2023/10/20 02:22:28;;;;;;;;;;;18.70;97.50;;;;;;5034003;28;20036;-59
2023/10/20 02:24:54;;;;;;;;;;;19.20;95.00;;;;;;5033642;28;19986;-61
2023/10/20 02:27:20;;;;;;;;;;;19.70;93.10;;;;;;5033714;28;20018;-62
2023/10/20 02:29:45;;;;;;;;;;;19.90;91.60;;;;;;5033461;28;20471;-60
2023/10/20 02:32:12;;;;;;;;;;;20.20;90.20;;;;;;5033757;28;19982;-63
2023/10/20 02:34:37;;;;;;;;;;;20.40;92.30;;;;;;5032875;28;19986;-60
2023/10/20 02:37:03;;;;;;;;;;;20.40;92.10;;;;;;5033087;28;19982;-62
2023/10/20 02:39:29;;;;;;;;;;;20.40;91.20;;;;;;5033663;28;19989;-61
2023/10/20 02:41:55;;;;;;;;;;;20.40;91.10;;;;;;5033776;28;20043;-60
2023/10/20 02:44:27;;;;;;;;;;;20.00;91.80;;;;;;5033616;28;19986;-60
2023/10/20 02:46:53;;;;;;;;;;;19.80;94.10;;;;;;5033589;28;20026;-62
2023/10/20 02:49:18;;;;;;;;;;;19.70;93.80;;;;;;5033134;28;20107;-63
2023/10/20 02:51:44;;;;;;;;;;;19.60;94.10;;;;;;5033313;28;20079;-61
2023/10/20 02:54:10;;;;;;;;;;;19.50;94.30;;;;;;5033413;28;19982;-61
2023/10/20 02:56:35;;;;;;;;;;;19.50;94.30;;;;;;5033372;28;19986;-62
2023/10/20 02:59:01;;;;;;;;;;;19.50;95.30;;;;;;5033334;28;20074;-61
2023/10/20 03:01:26;;;;;;;;;;;19.50;94.60;;;;;;5033362;28;19982;-62
2023/10/20 03:03:52;;;;;;;;;;;19.60;95.70;;;;;;5033161;28;20305;-59
2023/10/20 03:06:19;;;;;;;;;;;19.80;92.10;;;;;;5033315;28;19982;-62
2023/10/20 03:08:45;;;;;;;;;;;20.10;90.30;;;;;;5033189;28;20365;-62
2023/10/20 03:11:11;;;;;;;;;;;20.50;86.70;;;;;;5033500;28;20040;-62
2023/10/20 03:13:37;;;;;;;;;;;20.70;82.40;;;;;;5033492;28;20352;-60
2023/10/20 03:16:03;;;;;;;;;;;21.00;79.00;;;;;;5033088;28;20005;-60
2023/10/20 03:18:28;;;;;;;;;;;21.20;76.10;;;;;;5032850;28;19982;-63
2023/10/20 03:20:57;;;;;;;;;;;21.40;73.40;;;;;;5033208;28;19994;-63
2023/10/20 03:23:23;;;;;;;;;;;21.70;71.00;;;;;;5033100;28;19982;-62
2023/10/20 03:25:49;;;;;;;;;;;21.80;69.70;;;;;;5033119;28;19990;-60
2023/10/20 03:28:14;;;;;;;;;;;21.90;68.10;;;;;;5032968;28;20036;-60
2023/10/20 03:30:41;;;;;;;;;;;22.00;67.60;;;;;;5033072;28;20097;-62
2023/10/20 03:33:12;;;;;;;;;;;22.10;66.60;;;;;;5032852;28;19993;-60
2023/10/20 03:35:37;;;;;;;;;;;22.20;65.70;;;;;;5033069;28;20494;-62
2023/10/20 03:38:04;;;;;;;;;;;22.30;64.90;;;;;;5033227;28;19987;-60
2023/10/20 03:40:37;;;;;;;;;;;22.40;64.20;;;;;;5033248;28;20056;-59
2023/10/20 03:43:10;;;;;;;;;;;22.40;63.80;;;;;;5032896;28;19986;-60
2023/10/20 03:45:40;;;;;;;;;;;22.40;63.30;;;;;;5033180;28;19997;-61
2023/10/20 03:48:08;;;;;;;;;;;22.60;62.70;;;;;;5036009;28;20112;-59
2023/10/20 03:50:36;;;;;;;;;;;22.60;62.40;;;;;;5036397;28;19983;-63
2023/10/20 03:53:02;;;;;;;;;;;22.60;62.80;;;;;;5036691;28;20086;-63
2023/10/20 03:55:29;;;;;;;;;;;22.60;61.80;;;;;;5036298;28;20029;-62
2023/10/20 03:57:55;;;;;;;;;;;22.50;61.60;;;;;;5036332;28;19986;-62
2023/10/20 04:00:29;;;;;;;;;;;22.60;61.60;;;;;;5036396;28;20109;-63
2023/10/20 04:02:55;;;;;;;;;;;22.60;61.20;;;;;;5036064;28;19986;-60
2023/10/20 04:05:22;;;;;;;;;;;22.70;60.80;;;;;;5036197;28;20364;-63
2023/10/20 04:07:47;;;;;;;;;;;22.70;60.20;;;;;;5036095;28;20085;-63
2023/10/20 04:10:14;;;;;;;;;;;22.80;60.30;;;;;;5036142;28;20081;-60
2023/10/20 04:12:41;;;;;;;;;;;22.70;61.10;;;;;;5036026;28;19982;-63
2023/10/20 04:15:14;;;;;;;;;;;22.70;59.80;;;;;;5035937;28;20431;-60
2023/10/20 04:17:43;;;;;;;;;;;22.80;59.70;;;;;;5035824;28;20135;-61
2023/10/20 04:20:15;;;;;;;;;;;22.80;59.60;;;;;;5035739;28;20046;-62
2023/10/20 04:22:42;;;;;;;;;;;22.80;59.10;;;;;;5018136;28;20364;-61
2023/10/20 04:25:12;;;;;;;;;;;22.80;58.90;;;;;;5035851;28;19986;-63
2023/10/20 04:28:11;;;;;;;;;;;22.90;58.90;;;;;;5035602;28;19986;-61
2023/10/20 04:59:59;;;;;;;;;;;23.30;55.20;;;;;;5034320;28;20021;-61
2023/10/20 05:02:33;;;;;;;;;;;23.40;54.90;;;;;;5034973;28;20378;-60
2023/10/20 05:05:01;;;;;;;;;;;23.50;55.20;;;;;;5035040;28;20035;-63
2023/10/20 05:07:28;;;;;;;;;;;23.40;55.10;;;;;;5034812;28;19982;-62
2023/10/20 05:09:57;;;;;;;;;;;23.50;55.00;;;;;;5034777;28;20460;-60
2023/10/20 05:12:22;;;;;;;;;;;23.60;54.10;;;;;;5034819;28;20355;-60
2023/10/20 05:14:49;;;;;;;;;;;23.60;54.20;;;;;;5034729;28;20073;-60
2023/10/20 05:17:17;;;;;;;;;;;23.60;53.80;;;;;;5034661;28;20008;-60
2023/10/20 05:19:43;;;;;;;;;;;23.70;53.80;;;;;;5034493;28;20140;-62
2023/10/20 05:22:09;;;;;;;;;;;23.80;53.40;;;;;;5034837;28;20033;-62
2023/10/20 05:24:35;;;;;;;;;;;23.90;52.90;;;;;;5035221;28;20080;-62
2023/10/20 05:27:00;;;;;;;;;;;23.90;53.20;;;;;;5034903;28;20467;-61
2023/10/20 05:29:26;;;;;;;;;;;23.90;52.50;;;;;;5034573;28;20010;-61
2023/10/20 05:31:52;;;;;;;;;;;24.00;52.40;;;;;;5035052;28;20443;-62
2023/10/20 05:34:18;;;;;;;;;;;24.10;52.10;;;;;;5034456;28;20081;-62
2023/10/20 05:36:44;;;;;;;;;;;24.10;52.10;;;;;;5034398;28;20443;-62
2023/10/20 05:39:13;;;;;;;;;;;24.20;52.70;;;;;;5034266;28;20005;-61
2023/10/20 05:41:39;;;;;;;;;;;24.20;52.00;;;;;;5034446;28;20375;-61
2023/10/20 05:44:06;;;;;;;;;;;24.30;51.90;;;;;;5032525;28;19997;-62
2023/10/20 05:46:32;;;;;;;;;;;24.30;51.40;;;;;;5034534;28;19986;-60
2023/10/20 05:48:57;;;;;;;;;;;24.40;51.50;;;;;;5034521;28;20033;-62
2023/10/20 05:51:23;;;;;;;;;;;24.40;51.40;;;;;;5034113;28;19993;-62
2023/10/20 05:53:48;;;;;;;;;;;24.40;51.90;;;;;;5034317;28;19990;-61
2023/10/20 05:56:14;;;;;;;;;;;24.40;51.00;;;;;;5033645;28;19989;-61
2023/10/20 05:58:40;;;;;;;;;;;24.50;51.20;;;;;;5033952;28;19983;-60
2023/10/20 06:01:06;;;;;;;;;;;24.50;50.70;;;;;;5033056;28;20033;-66
2023/10/20 06:03:32;;;;;;;;;;;24.60;50.80;;;;;;5033686;28;20037;-63
2023/10/20 06:06:01;;;;;;;;;;;24.60;51.30;;;;;;5032330;28;20033;-66
2023/10/20 06:08:28;;;;;;;;;;;24.60;50.70;;;;;;5027554;28;20006;-64
2023/10/20 06:10:58;;;;;;;;;;;24.60;50.80;;;;;;5033635;28;19983;-64
2023/10/20 06:13:24;;;;;;;;;;;24.70;50.60;;;;;;5033684;28;19989;-61
2023/10/20 06:15:50;;;;;;;;;;;24.70;50.90;;;;;;5034009;28;20427;-62
2023/10/20 06:18:15;;;;;;;;;;;24.70;51.10;;;;;;5033188;28;19994;-62
2023/10/20 06:20:41;;;;;;;;;;;24.60;50.80;;;;;;5026314;28;20053;-63
2023/10/20 06:23:07;;;;;;;;;;;24.70;50.90;;;;;;5031055;28;20463;-61
2023/10/20 06:25:32;;;;;;;;;;;24.80;50.50;;;;;;5030940;28;20028;-61
2023/10/20 06:27:58;;;;;;;;;;;24.80;50.70;;;;;;5031495;28;20124;-64
2023/10/20 06:30:23;;;;;;;;;;;24.80;51.30;;;;;;5032617;28;19992;-62
2023/10/20 06:35:35;;;;;;;;;;;24.80;50.70;;;;;;5029789;28;20009;-66
2023/10/20 06:40:35;;;;;;;;;;;25.00;50.20;;;;;;5031086;28;19990;-63
2023/10/20 06:43:00;;;;;;;;;;;25.00;50.30;;;;;;5032062;28;20429;-68
2023/10/20 06:45:26;;;;;;;;;;;25.10;50.60;;;;;;5013873;28;19994;-64
2023/10/20 06:47:51;;;;;;;;;;;25.20;50.20;;;;;;5030702;28;20393;-63
2023/10/20 06:50:17;;;;;;;;;;;25.30;50.10;;;;;;5014166;28;19998;-61
2023/10/20 06:52:43;;;;;;;;;;;25.30;49.60;;;;;;5025178;28;19990;-64
2023/10/20 06:55:09;;;;;;;;;;;25.40;49.70;;;;;;5030267;28;19993;-63
2023/10/20 06:57:35;;;;;;;;;;;25.40;50.60;;;;;;5030937;28;19990;-62
2023/10/20 07:00:00;;;;;;;;;;;25.40;49.70;;;;;;5031444;28;20486;-62
2023/10/20 07:02:26;;;;;;;;;;;25.40;50.00;;;;;;5031016;28;20075;-62
2023/10/20 07:04:52;;;;;;;;;;;25.50;50.00;;;;;;5031319;28;20473;-62
2023/10/20 07:07:18;;;;;;;;;;;25.50;50.00;;;;;;5029197;28;20150;-63
2023/10/20 07:09:46;;;;;;;;;;;25.50;50.30;;;;;;5029809;28;20013;-63
2023/10/20 07:12:13;;;;;;;;;;;25.40;52.50;;;;;;5031150;28;19983;-62
2023/10/20 07:14:39;;;;;;;;;;;25.30;51.40;;;;;;5030657;28;20089;-65
2023/10/20 07:17:06;;;;;;;;;;;25.40;51.50;;;;;;5030099;28;20113;-62
2023/10/20 07:19:33;;;;;;;;;;;25.30;51.30;;;;;;5029740;28;20021;-64
2023/10/20 07:22:04;;;;;;;;;;;25.30;50.40;;;;;;5032507;28;19986;-63
2023/10/20 07:24:30;;;;;;;;;;;25.20;52.10;;;;;;5035389;28;20440;-61
2023/10/20 07:26:56;;;;;;;;;;;25.20;53.70;;;;;;5036192;28;20082;-65
2023/10/20 07:29:21;;;;;;;;;;;25.10;52.60;;;;;;5032479;28;20010;-63
2023/10/20 07:31:47;;;;;;;;;;;25.20;52.10;;;;;;5035878;28;19997;-63
2023/10/20 07:34:13;;;;;;;;;;;25.20;51.50;;;;;;5036374;28;19994;-64
2023/10/20 07:36:40;;;;;;;;;;;25.20;48.90;;;;;;5028845;28;20369;-63
2023/10/20 07:39:08;;;;;;;;;;;25.30;50.80;;;;;;5026131;28;20456;-62
2023/10/20 07:41:35;;;;;;;;;;;25.40;50.20;;;;;;5034155;28;20036;-64
2023/10/20 07:44:01;;;;;;;;;;;25.50;52.70;;;;;;5031297;28;20068;-60
2023/10/20 07:46:27;;;;;;;;;;;25.50;53.80;;;;;;5030374;28;19994;-58
2023/10/20 07:48:52;;;;;;;;;;;25.50;48.70;;;;;;5031473;28;20056;-62
2023/10/20 07:51:18;;;;;;;;;;;25.50;51.60;;;;;;5033010;28;19981;-62
2023/10/20 07:53:44;;;;;;;;;;;25.70;53.10;;;;;;5031580;28;20055;-65
2023/10/20 07:56:09;;;;;;;;;;;26.00;53.00;;;;;;5014212;28;20511;-67
2023/10/20 07:58:35;;;;;;;;;;;26.10;53.40;;;;;;5013526;28;20012;-64
2023/10/20 08:01:01;;;;;;;;;;;26.50;53.30;;;;;;5032510;28;19994;-61
2023/10/20 08:03:26;;;;;;;;;;;26.90;53.30;;;;;;5028987;28;20034;-61
2023/10/20 08:05:52;;;;;;;;;;;27.00;50.40;;;;;;5030218;28;20080;-62
2023/10/20 08:08:18;;;;;;;;;;;27.10;50.40;;;;;;5033423;28;20131;-59
2023/10/20 08:10:44;;;;;;;;;;;27.10;50.00;;;;;;5032648;28;20329;-61
2023/10/20 08:13:09;;;;;;;;;;;27.10;50.60;;;;;;5029673;28;19983;-61
2023/10/20 08:15:35;;;;;;;;;;;27.60;50.80;;;;;;5031913;28;20360;-61
2023/10/20 08:18:01;;;;;;;;;;;28.10;45.50;;;;;;5033592;28;20408;-62
2023/10/20 08:20:27;;;;;;;;;;;28.90;47.20;;;;;;5032538;28;20025;-63
2023/10/20 08:22:52;;;;;;;;;;;30.00;44.10;;;;;;5032687;28;19986;-64
2023/10/20 08:25:18;;;;;;;;;;;31.30;43.70;;;;;;5031063;28;20040;-62
2023/10/20 08:27:47;;;;;;;;;;;32.60;40.50;;;;;;5033669;28;19982;-60
2023/10/20 08:30:13;;;;;;;;;;;33.30;38.30;;;;;;5031439;28;19998;-61
2023/10/20 08:32:39;;;;;;;;;;;33.00;38.10;;;;;;5034224;28;19986;-63
2023/10/20 08:35:08;;;;;;;;;;;32.70;36.90;;;;;;5032449;28;20705;-64
2023/10/20 08:37:34;;;;;;;;;;;32.20;36.90;;;;;;5033902;28;19993;-65
2023/10/20 08:39:59;;;;;;;;;;;32.10;36.50;;;;;;5032852;28;19986;-65
2023/10/20 08:42:25;;;;;;;;;;;31.70;35.80;;;;;;5031902;28;19991;-61
2023/10/20 08:44:51;;;;;;;;;;;31.30;36.30;;;;;;5032333;28;19986;-60
2023/10/20 08:47:17;;;;;;;;;;;31.00;36.80;;;;;;5032139;28;19987;-62
2023/10/20 08:49:43;;;;;;;;;;;30.90;36.90;;;;;;5032889;28;20005;-61
2023/10/20 08:52:17;;;;;;;;;;;30.90;38.20;;;;;;5015339;28;19997;-65
2023/10/20 08:54:42;;;;;;;;;;;31.10;38.60;;;;;;5031429;28;19986;-63
2023/10/20 08:57:08;;;;;;;;;;;31.40;36.50;;;;;;5033779;28;19994;-61
2023/10/20 08:59:37;;;;;;;;;;;31.60;36.90;;;;;;5034322;28;20387;-61
2023/10/20 09:02:03;;;;;;;;;;;31.50;36.10;;;;;;5016266;28;19986;-60
2023/10/20 09:04:29;;;;;;;;;;;31.30;35.70;;;;;;5034571;28;20305;-60
2023/10/20 09:06:55;;;;;;;;;;;31.10;36.90;;;;;;5034020;28;20157;-64
2023/10/20 09:09:20;;;;;;;;;;;30.50;36.80;;;;;;5034724;28;20006;-60
2023/10/20 09:11:46;;;;;;;;;;;30.10;36.40;;;;;;5033510;28;20346;-63
2023/10/20 09:14:12;;;;;;;;;;;29.70;36.80;;;;;;5033760;28;20026;-59
2023/10/20 09:16:38;;;;;;;;;;;29.60;37.50;;;;;;5034022;28;20479;-61
2023/10/20 09:19:04;;;;;;;;;;;29.50;37.90;;;;;;5024211;28;20079;-61
2023/10/20 09:21:30;;;;;;;;;;;29.40;38.20;;;;;;5033644;28;19990;-59
2023/10/20 09:23:57;;;;;;;;;;;29.40;38.30;;;;;;5031886;28;19982;-59
2023/10/20 09:26:23;;;;;;;;;;;29.30;38.40;;;;;;5029425;28;19990;-60
2023/10/20 09:29:06;;;;;;;;;;;29.00;38.30;;;;;;5024741;28;20020;-63
2023/10/20 09:31:35;;;;;;;;;;;29.00;38.50;;;;;;5019866;28;20289;-64
2023/10/20 09:34:01;;;;;;;;;;;28.90;38.40;;;;;;5032807;28;19997;-67
2023/10/20 09:36:30;;;;;;;;;;;28.80;38.60;;;;;;5030886;28;19990;-66
2023/10/20 09:38:56;;;;;;;;;;;28.70;38.60;;;;;;5032070;28;20044;-63
2023/10/20 09:41:27;;;;;;;;;;;28.70;37.80;;;;;;5029354;28;20101;-65
2023/10/20 09:44:00;;;;;;;;;;;28.60;38.80;;;;;;5030762;28;20363;-62
2023/10/20 09:46:48;;;;;;;;;;;28.60;39.10;;;;;;5015420;28;19990;-62
2023/10/20 09:49:15;;;;;;;;;;;28.50;38.80;;;;;;5029733;28;20010;-65
2023/10/20 09:51:45;;;;;;;;;;;28.40;38.30;;;;;;5031439;28;19982;-61
2023/10/20 09:54:14;;;;;;;;;;;28.50;38.70;;;;;;5031992;28;20040;-65
2023/10/20 09:56:44;;;;;;;;;;;28.30;39.00;;;;;;5033205;28;19986;-64
2023/10/20 09:59:15;;;;;;;;;;;28.40;38.90;;;;;;5032431;28;20349;-63
2023/10/20 10:01:42;;;;;;;;;;;28.30;38.70;;;;;;5033050;28;19990;-65
2023/10/20 10:04:09;;;;;;;;;;;28.20;40.20;;;;;;5032504;28;19997;-63
2023/10/20 10:06:35;;;;;;;;;;;28.10;39.30;;;;;;5014878;28;19994;-62
2023/10/20 10:09:04;;;;;;;;;;;28.10;39.60;;;;;;5013631;28;20371;-71
2023/10/20 10:11:30;;;;;;;;;;;28.20;39.10;;;;;;5032704;28;20105;-74
2023/10/20 10:14:02;;;;;;;;;;;28.10;39.30;;;;;;5032973;28;20364;-65
2023/10/20 10:16:28;;;;;;;;;;;28.00;39.30;;;;;;5032431;28;20007;-65
2023/10/20 10:18:57;;;;;;;;;;;28.00;39.80;;;;;;5024302;28;20065;-63
2023/10/20 10:21:26;;;;;;;;;;;28.10;40.20;;;;;;5032272;28;20001;-64
2023/10/20 10:24:08;;;;;;;;;;;28.00;40.00;;;;;;5032124;28;20343;-61
2023/10/20 10:26:34;;;;;;;;;;;28.00;39.60;;;;;;5029396;28;19990;-61
2023/10/20 10:28:59;;;;;;;;;;;28.10;40.10;;;;;;5029823;28;20010;-65
2023/10/20 10:31:37;;;;;;;;;;;28.20;39.70;;;;;;5029501;28;19994;-61
2023/10/20 10:34:04;;;;;;;;;;;28.20;39.70;;;;;;5030102;28;19986;-65
2023/10/20 10:36:43;;;;;;;;;;;28.20;39.90;;;;;;5031624;28;20013;-65
2023/10/20 10:39:08;;;;;;;;;;;28.30;40.30;;;;;;5013387;28;20360;-65
2023/10/20 10:41:34;;;;;;;;;;;28.30;39.60;;;;;;5032627;28;19982;-64
2023/10/20 10:44:00;;;;;;;;;;;28.30;39.90;;;;;;5032621;28;19990;-63
2023/10/20 10:46:35;;;;;;;;;;;28.30;39.40;;;;;;5033255;28;19986;-66
2023/10/20 10:49:10;;;;;;;;;;;28.30;39.20;;;;;;5032378;28;20012;-61
2023/10/20 10:51:47;;;;;;;;;;;28.10;40.40;;;;;;5032226;28;19993;-64
2023/10/20 10:54:13;;;;;;;;;;;28.10;40.20;;;;;;5013289;28;20039;-63
2023/10/20 10:56:45;;;;;;;;;;;28.00;39.20;;;;;;5023357;28;20128;-62
2023/10/20 10:59:11;;;;;;;;;;;28.00;38.60;;;;;;5035777;28;20380;-61
2023/10/20 11:01:39;;;;;;;;;;;27.90;39.40;;;;;;5037153;28;19982;-62
2023/10/20 11:04:09;;;;;;;;;;;27.90;38.90;;;;;;5019788;28;20642;-62
2023/10/20 11:06:38;;;;;;;;;;;28.00;39.10;;;;;;5015450;28;20088;-64
2023/10/20 11:09:10;;;;;;;;;;;28.00;39.40;;;;;;5028242;28;20010;-61
2023/10/20 11:11:39;;;;;;;;;;;28.10;39.10;;;;;;5034410;28;19994;-61
2023/10/20 11:14:05;;;;;;;;;;;28.10;39.10;;;;;;5033457;28;20064;-63
2023/10/20 11:16:33;;;;;;;;;;;28.00;39.00;;;;;;5034064;28;20444;-63
2023/10/20 11:19:01;;;;;;;;;;;28.10;38.80;;;;;;5033194;28;20409;-64
2023/10/20 11:21:27;;;;;;;;;;;28.10;39.50;;;;;;5033539;28;19986;-61
2023/10/20 11:23:56;;;;;;;;;;;28.10;38.90;;;;;;5033882;28;19986;-63
2023/10/20 11:26:24;;;;;;;;;;;28.00;39.80;;;;;;5033013;28;19993;-63
2023/10/20 11:28:50;;;;;;;;;;;28.00;39.10;;;;;;5033402;28;20127;-61
2023/10/20 11:31:16;;;;;;;;;;;28.10;39.50;;;;;;5033671;28;19986;-62
2023/10/20 11:33:41;;;;;;;;;;;28.10;39.80;;;;;;5035180;28;20407;-64
2023/10/20 11:36:07;;;;;;;;;;;28.00;39.90;;;;;;5034471;28;19986;-61
2023/10/20 11:38:33;;;;;;;;;;;28.00;40.00;;;;;;5034865;28;20294;-61
2023/10/20 11:40:59;;;;;;;;;;;28.00;39.60;;;;;;5035770;28;19982;-61
2023/10/20 11:43:25;;;;;;;;;;;28.00;39.10;;;;;;5036068;28;19993;-62
2023/10/20 11:45:50;;;;;;;;;;;28.00;38.80;;;;;;5036094;28;20340;-62
2023/10/20 11:48:16;;;;;;;;;;;28.10;39.20;;;;;;5036175;28;20029;-63
2023/10/20 11:50:41;;;;;;;;;;;28.20;39.40;;;;;;5036583;28;20048;-62
2023/10/20 11:53:07;;;;;;;;;;;28.30;39.10;;;;;;5036555;28;19982;-63
2023/10/20 11:55:32;;;;;;;;;;;28.30;39.30;;;;;;5036773;28;20093;-63
2023/10/20 11:57:58;;;;;;;;;;;28.30;39.20;;;;;;5036287;28;19982;-64
2023/10/20 12:00:24;;;;;;;;;;;28.40;39.70;;;;;;5036408;28;19987;-60
2023/10/20 12:02:50;;;;;;;;;;;28.20;39.80;;;;;;5036373;28;20073;-64
2023/10/20 12:05:15;;;;;;;;;;;28.10;39.50;;;;;;5036224;28;20033;-63
2023/10/20 12:07:41;;;;;;;;;;;28.20;39.70;;;;;;5035976;28;20131;-60
2023/10/20 12:10:08;;;;;;;;;;;28.10;39.20;;;;;;5036139;28;20487;-63
2023/10/20 12:12:34;;;;;;;;;;;28.10;39.50;;;;;;5035494;28;20432;-60
2023/10/20 12:15:00;;;;;;;;;;;28.10;39.60;;;;;;5035745;28;19986;-62
2023/10/20 12:17:25;;;;;;;;;;;28.10;39.70;;;;;;5035921;28;20006;-62
2023/10/20 12:19:51;;;;;;;;;;;28.10;39.60;;;;;;5035729;28;20494;-62
2023/10/20 12:22:17;;;;;;;;;;;28.10;40.00;;;;;;5035478;28;20021;-62
2023/10/20 12:24:43;;;;;;;;;;;28.10;39.80;;;;;;5035756;28;19989;-63
2023/10/20 12:27:09;;;;;;;;;;;28.10;40.30;;;;;;5036014;28;19989;-64
2023/10/20 12:29:35;;;;;;;;;;;28.00;39.40;;;;;;5035780;28;20013;-62
2023/10/20 12:32:02;;;;;;;;;;;28.00;39.90;;;;;;5036053;28;19986;-63
2023/10/20 12:34:28;;;;;;;;;;;28.00;39.90;;;;;;5035865;28;19986;-63
2023/10/20 12:36:53;;;;;;;;;;;28.10;39.90;;;;;;5034387;28;20352;-60
2023/10/20 12:39:20;;;;;;;;;;;28.10;40.10;;;;;;5033749;28;19982;-61
2023/10/20 12:41:46;;;;;;;;;;;28.10;40.00;;;;;;5033719;28;20025;-63
2023/10/20 12:44:12;;;;;;;;;;;28.10;40.30;;;;;;5034370;28;20415;-62
2023/10/20 12:46:37;;;;;;;;;;;28.10;39.50;;;;;;5034946;28;20005;-61
2023/10/20 12:49:06;;;;;;;;;;;28.10;39.50;;;;;;5034916;28;20006;-63
2023/10/20 12:51:33;;;;;;;;;;;28.00;40.10;;;;;;5035159;28;19993;-62
2023/10/20 12:53:58;;;;;;;;;;;28.00;39.60;;;;;;5035534;28;20343;-61
2023/10/20 12:56:24;;;;;;;;;;;28.00;39.80;;;;;;5035322;28;19986;-65
2023/10/20 12:58:50;;;;;;;;;;;28.00;39.80;;;;;;5035363;28;20386;-60
2023/10/20 13:01:16;;;;;;;;;;;27.90;40.90;;;;;;5035187;28;19982;-62
2023/10/20 13:03:42;;;;;;;;;;;27.90;40.50;;;;;;5035399;28;19982;-62
2023/10/20 13:06:07;;;;;;;;;;;27.80;40.50;;;;;;5035510;28;19985;-62
2023/10/20 13:08:33;;;;;;;;;;;27.80;40.10;;;;;;5034900;28;20420;-60
2023/10/20 13:10:59;;;;;;;;;;;27.70;40.50;;;;;;5034977;28;20006;-61
2023/10/20 13:13:24;;;;;;;;;;;27.60;43.20;;;;;;5034834;28;19986;-61
2023/10/20 13:15:50;;;;;;;;;;;27.60;44.20;;;;;;5034852;28;20032;-63
2023/10/20 13:18:16;;;;;;;;;;;27.60;41.40;;;;;;5034929;28;20080;-62
2023/10/20 13:20:41;;;;;;;;;;;27.70;41.80;;;;;;5034070;28;20018;-61
2023/10/20 13:23:07;;;;;;;;;;;27.60;43.60;;;;;;5034689;28;19982;-61
2023/10/20 13:25:33;;;;;;;;;;;27.50;44.90;;;;;;5034855;28;19982;-61
2023/10/20 13:27:59;;;;;;;;;;;27.40;43.00;;;;;;5034465;28;20081;-61
2023/10/20 13:30:25;;;;;;;;;;;27.30;44.80;;;;;;5034624;28;20512;-63
2023/10/20 13:32:50;;;;;;;;;;;27.30;41.90;;;;;;5034620;28;20089;-62
2023/10/20 13:35:16;;;;;;;;;;;27.30;44.20;;;;;;5034724;28;19982;-61
2023/10/20 13:37:42;;;;;;;;;;;27.30;45.90;;;;;;5034759;28;20001;-61
2023/10/20 13:40:11;;;;;;;;;;;27.30;42.10;;;;;;5034424;28;19993;-61
2023/10/20 13:42:37;;;;;;;;;;;27.20;43.40;;;;;;5034260;28;20383;-61
2023/10/20 13:45:03;;;;;;;;;;;27.10;42.00;;;;;;5034377;28;19986;-62
2023/10/20 13:47:29;;;;;;;;;;;27.10;47.90;;;;;;5034271;28;19982;-61
2023/10/20 13:49:55;;;;;;;;;;;27.00;43.90;;;;;;5034309;28;20010;-64
2023/10/20 13:52:22;;;;;;;;;;;27.00;44.00;;;;;;5034456;28;19986;-63
2023/10/20 13:54:47;;;;;;;;;;;27.10;42.30;;;;;;5034150;28;20440;-63
2023/10/20 13:57:13;;;;;;;;;;;27.20;42.60;;;;;;5034006;28;19986;-62
2023/10/20 13:59:39;;;;;;;;;;;27.20;41.60;;;;;;5034294;28;20073;-64
2023/10/20 14:02:05;;;;;;;;;;;27.30;41.50;;;;;;5034130;28;20440;-60
2023/10/20 14:04:30;;;;;;;;;;;27.30;41.80;;;;;;5034234;28;20436;-63
2023/10/20 14:06:56;;;;;;;;;;;27.30;42.40;;;;;;5034107;28;19989;-63
2023/10/20 14:09:21;;;;;;;;;;;27.30;42.20;;;;;;5034032;28;20045;-62
2023/10/20 14:11:47;;;;;;;;;;;27.20;42.20;;;;;;5033951;28;20356;-60
2023/10/20 14:14:13;;;;;;;;;;;27.30;42.40;;;;;;5033999;28;19990;-62
2023/10/20 14:16:38;;;;;;;;;;;27.30;42.20;;;;;;5034091;28;20010;-61
2023/10/20 14:19:04;;;;;;;;;;;27.30;41.40;;;;;;5033547;28;20021;-61
2023/10/20 14:21:30;;;;;;;;;;;27.30;43.20;;;;;;5033824;28;20065;-60
2023/10/20 14:23:56;;;;;;;;;;;27.20;43.80;;;;;;5033799;28;20380;-61
2023/10/20 14:26:21;;;;;;;;;;;27.00;44.60;;;;;;5033355;28;19993;-63
2023/10/20 14:28:47;;;;;;;;;;;26.90;43.30;;;;;;5033684;28;20010;-64
2023/10/20 14:31:12;;;;;;;;;;;26.90;42.00;;;;;;5033705;28;20089;-62
2023/10/20 14:33:38;;;;;;;;;;;26.90;42.50;;;;;;5033828;28;19986;-61
2023/10/20 14:36:04;;;;;;;;;;;26.90;41.70;;;;;;5033636;28;20392;-63
2023/10/20 14:38:30;;;;;;;;;;;26.90;42.40;;;;;;5033791;28;19987;-62
2023/10/20 14:41:03;;;;;;;;;;;26.90;44.10;;;;;;5033426;28;20108;-60
2023/10/20 14:43:32;;;;;;;;;;;26.80;44.50;;;;;;5033606;28;20027;-62
2023/10/20 14:45:58;;;;;;;;;;;26.70;42.50;;;;;;5033797;28;20085;-63
2023/10/20 14:48:23;;;;;;;;;;;26.60;42.50;;;;;;5033437;28;20104;-60